createdAt,value
2023-04-14T00:02:09.568Z,100791.72
2023-04-14T00:04:36.430Z,100787.28
2023-04-14T00:07:03.062Z,100782.63
2023-04-14T00:09:29.967Z,100790.03
2023-04-14T00:11:57.396Z,100789.47
2023-04-14T00:14:23.777Z,100786.66
2023-04-14T00:16:50.396Z,100782.63
2023-04-14T00:19:16.818Z,100779.72
2023-04-14T00:21:43.134Z,100787.81
2023-04-14T00:24:09.478Z,100788.50
2023-04-14T00:26:35.814Z,100792.50
2023-04-14T00:29:02.476Z,100786.41
2023-04-14T00:31:29.062Z,100794.25
2023-04-14T00:33:55.461Z,100795.59
2023-04-14T00:36:21.750Z,100799.69
2023-04-14T00:38:48.124Z,100807.19
2023-04-14T00:41:14.470Z,100804.59
2023-04-14T00:43:40.759Z,100801.72
2023-04-14T00:46:07.148Z,100804.84
2023-04-14T00:48:33.501Z,100801.44
2023-04-14T00:51:00.017Z,100804.50
2023-04-14T00:53:27.319Z,100812.56
2023-04-14T00:55:53.684Z,100807.28
2023-04-14T00:58:20.086Z,100812.34
2023-04-14T01:00:52.304Z,100813.88
2023-04-14T01:03:18.695Z,100818.72
2023-04-14T01:05:45.237Z,100814.22
2023-04-14T01:08:12.129Z,100814.56
2023-04-14T01:10:41.074Z,100821.69
2023-04-14T01:13:10.498Z,100821.38
2023-04-14T01:15:52.514Z,100819.28
2023-04-14T01:18:24.446Z,100819.56
2023-04-14T01:20:51.783Z,100820.41
2023-04-14T01:23:26.947Z,100822.28
2023-04-14T01:26:22.713Z,100823.91
2023-04-14T01:29:04.301Z,100824.41
2023-04-14T01:31:50.973Z,100821.81
2023-04-14T01:34:22.687Z,100829.56
2023-04-14T01:36:51.999Z,100817.47
2023-04-14T01:39:18.630Z,100832.00
2023-04-14T01:41:47.310Z,100831.81
2023-04-14T01:44:13.607Z,100821.28
2023-04-14T01:46:40.122Z,100824.47
2023-04-14T01:49:06.630Z,100820.53
2023-04-14T01:51:33.285Z,100820.19
2023-04-14T01:53:59.573Z,100819.91
2023-04-14T01:56:25.932Z,100828.63
2023-04-14T01:58:52.451Z,100827.59
2023-04-14T02:01:18.803Z,100826.84
2023-04-14T02:03:45.188Z,100824.53
2023-04-14T02:06:12.129Z,100824.22
2023-04-14T02:08:38.954Z,100824.19
2023-04-14T02:11:05.491Z,100825.00
2023-04-14T02:13:32.149Z,100824.63
2023-04-14T02:15:59.033Z,100828.81
2023-04-14T02:18:25.325Z,100816.25
2023-04-14T02:20:52.537Z,100822.41
2023-04-14T02:23:18.829Z,100824.78
2023-04-14T02:25:49.806Z,100835.09
2023-04-14T02:28:17.862Z,100833.03
2023-04-14T02:30:44.955Z,100841.75
2023-04-14T02:33:12.694Z,100836.34
2023-04-14T02:35:48.954Z,100841.56
2023-04-14T02:38:28.913Z,100843.19
2023-04-14T02:40:55.300Z,100841.59
2023-04-14T02:43:26.785Z,100841.56
2023-04-14T02:45:53.138Z,100846.25
2023-04-14T02:48:19.452Z,100839.72
2023-04-14T02:50:46.587Z,100854.09
2023-04-14T02:53:13.104Z,100851.66
2023-04-14T02:55:39.399Z,100854.28
2023-04-14T02:58:05.935Z,100855.91
2023-04-14T03:00:32.242Z,100856.84
2023-04-14T03:02:58.580Z,100855.06
2023-04-14T03:05:24.967Z,100862.78
2023-04-14T03:07:52.617Z,100859.09
2023-04-14T03:10:19.960Z,100864.31
2023-04-14T03:12:46.321Z,100858.25
2023-04-14T03:15:12.636Z,100860.59
2023-04-14T03:17:39.206Z,100856.19
2023-04-14T03:20:05.778Z,100864.50
2023-04-14T03:22:34.296Z,100866.03
2023-04-14T03:25:00.982Z,100868.88
2023-04-14T03:27:27.995Z,100864.16
2023-04-14T03:29:55.116Z,100866.19
2023-04-14T03:32:22.722Z,100865.25
2023-04-14T03:34:50.353Z,100865.53
2023-04-14T03:37:17.991Z,100872.47
2023-04-14T03:39:45.564Z,100869.19
2023-04-14T03:42:12.108Z,100874.22
2023-04-14T03:44:39.804Z,100873.81
2023-04-14T03:47:08.062Z,100869.28
2023-04-14T03:49:38.052Z,100873.19
2023-04-14T03:52:07.953Z,100870.34
2023-04-14T03:54:34.656Z,100881.81
2023-04-14T03:57:02.118Z,100883.69
2023-04-14T03:59:28.443Z,100879.47
2023-04-14T04:01:54.866Z,100889.34
2023-04-14T04:04:21.382Z,100884.53
2023-04-14T04:06:50.041Z,100884.19
2023-04-14T04:09:17.977Z,100881.88
2023-04-14T04:11:46.512Z,100884.16
2023-04-14T04:14:13.332Z,100882.94
2023-04-14T04:16:40.779Z,100883.63
2023-04-14T04:19:07.363Z,100888.75
2023-04-14T04:21:36.927Z,100881.38
2023-04-14T04:24:03.219Z,100885.84
2023-04-14T04:26:29.530Z,100882.03
2023-04-14T04:28:59.034Z,100893.94
2023-04-14T04:31:25.616Z,100891.16
2023-04-14T04:33:51.908Z,100892.69
2023-04-14T04:36:18.291Z,100896.38
2023-04-14T04:38:44.617Z,100893.72
2023-04-14T04:41:23.649Z,100898.22
2023-04-14T04:43:49.966Z,100897.56
2023-04-14T04:46:22.871Z,100907.72
2023-04-14T04:48:52.718Z,100906.94
2023-04-14T04:51:19.268Z,100906.06
2023-04-14T04:53:45.830Z,100913.66
2023-04-14T04:56:12.162Z,100907.88
2023-04-14T04:58:38.423Z,100915.75
2023-04-14T05:01:11.166Z,100907.41
2023-04-14T05:03:37.719Z,100911.63
2023-04-14T05:06:04.235Z,100914.09
2023-04-14T05:08:30.666Z,100908.50
2023-04-14T05:10:57.100Z,100914.44
2023-04-14T05:13:23.651Z,100912.63
2023-04-14T05:15:49.969Z,100910.41
2023-04-14T05:18:16.308Z,100912.97
2023-04-14T05:20:42.653Z,100909.38
2023-04-14T05:23:08.970Z,100921.38
2023-04-14T05:25:35.546Z,100927.97
2023-04-14T05:28:01.871Z,100918.41
2023-04-14T05:30:28.175Z,100929.78
2023-04-14T05:32:54.546Z,100923.38
2023-04-14T05:35:20.980Z,100926.69
2023-04-14T05:37:47.331Z,100923.97
2023-04-14T05:40:13.654Z,100930.91
2023-04-14T05:42:41.834Z,100935.13
2023-04-14T05:45:08.384Z,100935.81
2023-04-14T05:47:34.868Z,100932.13
2023-04-14T05:50:03.739Z,100936.19
2023-04-14T05:52:30.037Z,100940.47
2023-04-14T05:54:56.329Z,100930.72
2023-04-14T05:57:22.690Z,100936.94
2023-04-14T05:59:48.978Z,100937.88
2023-04-14T06:02:15.447Z,100939.72
2023-04-14T06:04:41.900Z,100941.53
2023-04-14T06:07:08.299Z,100943.28
2023-04-14T06:09:34.630Z,100940.59
2023-04-14T06:12:01.561Z,100948.44
2023-04-14T06:14:27.836Z,100953.06
2023-04-14T06:16:54.750Z,100947.78
2023-04-14T06:19:21.190Z,100937.28
2023-04-14T06:21:47.590Z,100940.19
2023-04-14T06:24:13.924Z,100943.00
2023-04-14T06:26:40.222Z,100946.50
2023-04-14T06:29:07.576Z,100942.53
2023-04-14T06:31:34.184Z,100936.13
2023-04-14T06:34:00.600Z,100941.47
2023-04-14T06:36:27.172Z,100939.19
2023-04-14T06:38:53.500Z,100944.09
2023-04-14T06:41:19.812Z,100948.03
2023-04-14T06:43:46.532Z,100952.00
2023-04-14T06:46:13.060Z,100942.94
2023-04-14T06:48:39.408Z,100942.25
2023-04-14T06:51:05.748Z,100950.56
2023-04-14T06:53:32.234Z,100946.81
2023-04-14T06:56:01.582Z,100945.47
2023-04-14T06:58:28.732Z,100947.25
2023-04-14T07:00:59.077Z,100939.66
2023-04-14T07:03:26.234Z,100942.53
2023-04-14T07:05:53.267Z,100945.31
2023-04-14T07:08:20.495Z,100948.44
2023-04-14T07:10:47.367Z,100938.56
2023-04-14T07:13:13.959Z,100944.44
2023-04-14T07:15:45.892Z,100937.50
2023-04-14T07:18:12.401Z,100934.22
2023-04-14T07:20:38.923Z,100940.03
2023-04-14T07:23:05.336Z,100941.63
2023-04-14T07:25:35.153Z,100943.13
2023-04-14T07:28:03.626Z,100943.72
2023-04-14T07:30:31.471Z,100947.84
2023-04-14T07:32:58.485Z,100944.63
2023-04-14T07:35:26.199Z,100939.97
2023-04-14T07:37:52.859Z,100942.94
2023-04-14T07:40:20.125Z,100954.00
2023-04-14T07:42:47.040Z,100956.84
2023-04-14T07:45:13.561Z,100955.81
2023-04-14T07:47:40.237Z,100958.94
2023-04-14T07:50:07.129Z,100956.31
2023-04-14T07:52:33.641Z,100955.22
2023-04-14T07:55:00.067Z,100958.88
2023-04-14T07:57:26.473Z,100950.94
2023-04-14T07:59:52.845Z,100951.66
2023-04-14T08:02:19.513Z,100950.94
2023-04-14T08:04:46.010Z,100956.91
2023-04-14T08:07:12.399Z,100952.06
2023-04-14T08:09:39.044Z,100949.38
2023-04-14T08:12:05.604Z,100962.34
2023-04-14T08:14:32.148Z,100958.47
2023-04-14T08:16:58.599Z,100959.97
2023-04-14T08:19:25.190Z,100964.09
2023-04-14T08:21:52.168Z,100962.53
2023-04-14T08:24:18.872Z,100956.16
2023-04-14T08:26:45.338Z,100960.94
2023-04-14T08:29:11.780Z,100965.47
2023-04-14T08:31:38.281Z,100957.44
2023-04-14T08:34:04.704Z,100951.88
2023-04-14T08:36:31.411Z,100959.78
2023-04-14T08:38:59.876Z,100968.13
2023-04-14T08:41:26.810Z,100969.19
2023-04-14T08:43:53.335Z,100963.75
2023-04-14T08:46:20.206Z,100972.59
2023-04-14T08:48:50.353Z,100966.19
2023-04-14T08:51:35.096Z,100959.38
2023-04-14T08:54:04.758Z,100967.06
2023-04-14T08:56:34.534Z,100968.13
2023-04-14T08:59:01.815Z,100969.00
2023-04-14T09:01:29.443Z,100969.75
2023-04-14T09:03:57.693Z,100957.47
2023-04-14T09:06:24.551Z,100958.69
2023-04-14T09:08:51.387Z,100966.81
2023-04-14T09:11:17.872Z,100964.06
2023-04-14T09:13:44.417Z,100956.06
2023-04-14T09:16:12.524Z,100960.38
2023-04-14T09:18:40.432Z,100966.81
2023-04-14T09:21:49.512Z,100968.88
2023-04-14T09:23:54.736Z,100963.53
2023-04-14T09:26:21.285Z,100954.19
2023-04-14T09:28:47.702Z,100961.06
2023-04-14T09:31:14.109Z,100961.97
2023-04-14T09:33:44.455Z,100955.91
2023-04-14T09:36:19.667Z,100952.44
2023-04-14T09:38:46.193Z,100951.66
2023-04-14T09:41:21.579Z,100953.25
2023-04-14T09:43:48.845Z,100958.38
2023-04-14T09:46:15.675Z,100953.97
2023-04-14T09:48:55.990Z,100955.53
2023-04-14T09:51:33.161Z,100956.81
2023-04-14T09:54:06.575Z,100957.88
2023-04-14T09:56:33.324Z,100957.88
2023-04-14T09:59:01.333Z,100946.53
2023-04-14T10:01:33.884Z,100945.56
2023-04-14T10:04:02.143Z,100946.19
2023-04-14T10:06:28.671Z,100945.84
2023-04-14T10:08:56.037Z,100940.34
2023-04-14T10:11:24.907Z,100943.97
2023-04-14T10:13:59.003Z,100944.72
2023-04-14T10:16:26.558Z,100939.31
2023-04-14T10:18:53.876Z,100946.44
2023-04-14T10:21:22.853Z,100938.69
2023-04-14T10:23:49.379Z,100925.16
2023-04-14T10:26:18.882Z,100933.00
2023-04-14T10:28:47.076Z,100931.19
2023-04-14T10:31:38.343Z,100930.22
2023-04-14T10:34:12.316Z,100917.50
2023-04-14T10:36:39.632Z,100918.38
2023-04-14T10:39:06.932Z,100915.66
2023-04-14T10:41:44.259Z,100908.56
2023-04-14T10:44:31.436Z,100898.97
2023-04-14T10:47:00.232Z,100904.69
2023-04-14T10:49:35.267Z,100906.25
2023-04-14T10:52:03.769Z,100903.03
2023-04-14T10:54:51.458Z,100904.22
2023-04-14T10:57:19.231Z,100890.72
2023-04-14T10:59:47.340Z,100907.75
2023-04-14T11:02:26.074Z,100906.72
2023-04-14T11:05:06.749Z,100899.78
2023-04-14T11:07:47.211Z,100891.97
2023-04-14T11:10:16.761Z,100905.06
2023-04-14T11:12:44.396Z,100895.03
2023-04-14T11:15:11.045Z,100887.66
2023-04-14T11:17:39.026Z,100898.06
2023-04-14T11:20:19.547Z,100893.75
2023-04-14T11:22:47.773Z,100894.91
2023-04-14T11:25:16.268Z,100897.44
2023-04-14T11:27:44.894Z,100888.44
2023-04-14T11:30:19.457Z,100888.47
2023-04-14T11:32:46.678Z,100883.31
2023-04-14T11:35:13.762Z,100874.69
2023-04-14T11:37:40.305Z,100873.13
2023-04-14T11:40:07.450Z,100872.19
2023-04-14T11:42:34.177Z,100881.06
2023-04-14T11:45:02.726Z,100858.13
2023-04-14T11:47:29.239Z,100867.34
2023-04-14T11:49:55.634Z,100862.88
2023-04-14T11:52:22.024Z,100854.69
2023-04-14T11:54:49.242Z,100860.25
2023-04-14T11:57:18.626Z,100866.47
2023-04-14T11:59:47.153Z,100859.84
2023-04-14T12:02:18.707Z,100859.09
2023-04-14T12:04:50.618Z,100865.03
2023-04-14T12:07:18.661Z,100860.22
2023-04-14T12:09:49.112Z,100857.28
2023-04-14T12:12:17.316Z,100857.25
2023-04-14T12:14:44.271Z,100866.00
2023-04-14T12:17:10.709Z,100857.56
2023-04-14T12:19:37.387Z,100860.00
2023-04-14T12:22:04.202Z,100860.66
2023-04-14T12:24:33.232Z,100866.66
2023-04-14T12:26:59.736Z,100858.63
2023-04-14T12:29:26.116Z,100856.97
2023-04-14T12:31:53.797Z,100846.63
2023-04-14T12:34:26.576Z,100858.97
2023-04-14T12:36:53.302Z,100853.94
2023-04-14T12:39:22.030Z,100848.97
2023-04-14T12:41:48.500Z,100853.03
2023-04-14T12:44:15.591Z,100859.44
2023-04-14T12:46:46.847Z,100855.94
2023-04-14T12:49:29.015Z,100853.31
2023-04-14T12:51:55.536Z,100850.84
2023-04-14T12:54:22.080Z,100853.03
2023-04-14T12:56:48.404Z,100849.91
2023-04-14T12:59:14.717Z,100852.19
2023-04-14T13:01:41.178Z,100851.50
2023-04-14T13:04:07.857Z,100843.53
2023-04-14T13:06:35.025Z,100847.50
2023-04-14T13:09:01.618Z,100848.63
2023-04-14T13:11:28.685Z,100837.00
2023-04-14T13:13:55.003Z,100838.94
2023-04-14T13:16:22.110Z,100840.38
2023-04-14T13:18:48.972Z,100834.09
2023-04-14T13:21:15.826Z,100827.38
2023-04-14T13:23:42.344Z,100820.88
2023-04-14T13:26:08.787Z,100816.97
2023-04-14T13:28:35.507Z,100812.28
2023-04-14T13:31:01.817Z,100818.00
2023-04-14T13:33:28.126Z,100818.06
2023-04-14T13:35:55.620Z,100815.50
2023-04-14T13:38:22.185Z,100811.47
2023-04-14T13:40:48.556Z,100807.16
2023-04-14T13:43:15.754Z,100800.16
2023-04-14T13:45:42.333Z,100793.09
2023-04-14T13:48:08.695Z,100796.22
2023-04-14T13:50:35.037Z,100811.22
2023-04-14T13:53:01.479Z,100803.06
2023-04-14T13:55:27.834Z,100796.31
2023-04-14T13:57:55.177Z,100786.19
2023-04-14T14:00:21.773Z,100787.66
2023-04-14T14:02:48.256Z,100787.94
2023-04-14T14:05:14.839Z,100786.47
2023-04-14T14:07:41.309Z,100792.44
2023-04-14T14:10:09.893Z,100788.63
2023-04-14T14:12:36.440Z,100786.56
2023-04-14T14:15:04.764Z,100790.53
2023-04-14T14:17:31.509Z,100783.03
2023-04-14T14:19:57.936Z,100780.13
2023-04-14T14:22:24.275Z,100766.16
2023-04-14T14:24:50.631Z,100778.16
2023-04-14T14:27:17.076Z,100780.25
2023-04-14T14:29:43.434Z,100777.06
2023-04-14T14:32:09.740Z,100769.97
2023-04-14T14:34:36.121Z,100772.78
2023-04-14T14:37:03.082Z,100765.44
2023-04-14T14:39:32.333Z,100770.97
2023-04-14T14:41:58.854Z,100769.88
2023-04-14T14:44:25.539Z,100771.28
2023-04-14T14:46:52.783Z,100770.56
2023-04-14T14:49:19.749Z,100767.72
2023-04-14T14:51:46.113Z,100767.22
2023-04-14T14:54:12.707Z,100766.66
2023-04-14T14:56:39.150Z,100779.06
2023-04-14T14:59:05.839Z,100770.84
2023-04-14T15:01:33.018Z,100784.19
2023-04-14T15:03:59.682Z,100786.63
2023-04-14T15:06:27.632Z,100778.22
2023-04-14T15:08:53.999Z,100782.38
2023-04-14T15:11:21.259Z,100773.59
2023-04-14T15:13:47.627Z,100790.94
2023-04-14T15:16:14.059Z,100781.56
2023-04-14T15:18:40.576Z,100777.56
2023-04-14T15:21:06.969Z,100788.06
2023-04-14T15:23:36.992Z,100770.72
2023-04-14T15:26:03.430Z,100779.03
2023-04-14T15:28:30.647Z,100769.00
2023-04-14T15:30:56.941Z,100769.84
2023-04-14T15:33:23.813Z,100779.47
2023-04-14T15:35:50.435Z,100771.22
2023-04-14T15:38:17.096Z,100766.75
2023-04-14T15:40:43.436Z,100774.28
2023-04-14T15:43:10.600Z,100772.59
2023-04-14T15:45:37.071Z,100779.63
2023-04-14T15:48:03.530Z,100771.75
2023-04-14T15:50:29.907Z,100753.84
2023-04-14T15:52:57.261Z,100771.13
2023-04-14T15:55:23.686Z,100768.22
2023-04-14T15:57:51.021Z,100773.34
2023-04-14T16:00:17.612Z,100776.09
2023-04-14T16:02:46.222Z,100777.91
2023-04-14T16:05:12.877Z,100769.69
2023-04-14T16:07:39.863Z,100773.13
2023-04-14T16:10:06.700Z,100763.03
2023-04-14T16:12:33.593Z,100775.72
2023-04-14T16:14:59.915Z,100766.47
2023-04-14T16:17:26.282Z,100779.13
2023-04-14T16:19:52.750Z,100770.72
2023-04-14T16:22:19.343Z,100769.28
2023-04-14T16:24:46.778Z,100778.66
2023-04-14T16:27:13.242Z,100768.91
2023-04-14T16:29:39.606Z,100761.00
2023-04-14T16:32:05.922Z,100760.66
2023-04-14T16:34:32.309Z,100770.28
2023-04-14T16:36:58.679Z,100758.28
2023-04-14T16:39:25.126Z,100765.06
2023-04-14T16:41:51.487Z,100763.59
2023-04-14T16:44:18.072Z,100763.59
2023-04-14T16:46:44.573Z,100775.66
2023-04-14T16:49:11.228Z,100762.06
2023-04-14T16:51:38.149Z,100756.66
2023-04-14T16:54:04.815Z,100770.53
2023-04-14T16:56:31.332Z,100769.53
2023-04-14T16:58:58.039Z,100763.06
2023-04-14T17:01:26.449Z,100756.19
2023-04-14T17:03:53.233Z,100764.00
2023-04-14T17:06:19.796Z,100768.78
2023-04-14T17:08:46.320Z,100768.09
2023-04-14T17:11:12.956Z,100774.66
2023-04-14T17:13:39.706Z,100775.25
2023-04-14T17:16:09.292Z,100767.09
2023-04-14T17:18:36.489Z,100776.88
2023-04-14T17:21:03.321Z,100776.66
2023-04-14T17:23:29.650Z,100775.97
2023-04-14T17:25:56.267Z,100778.06
2023-04-14T17:28:22.778Z,100770.81
2023-04-14T17:30:49.861Z,100780.63
2023-04-14T17:33:17.234Z,100789.50
2023-04-14T17:35:43.618Z,100791.97
2023-04-14T17:38:09.982Z,100791.94
2023-04-14T17:40:36.291Z,100787.97
2023-04-14T17:43:04.354Z,100792.66
2023-04-14T17:45:30.966Z,100788.84
2023-04-14T17:47:57.375Z,100792.09
2023-04-14T17:50:24.355Z,100794.72
2023-04-14T17:52:51.191Z,100790.22
2023-04-14T17:55:17.481Z,100795.69
2023-04-14T17:57:45.171Z,100797.88
2023-04-14T18:00:11.800Z,100799.75
2023-04-14T18:02:41.350Z,100801.41
2023-04-14T18:05:08.157Z,100805.06
2023-04-14T18:07:34.995Z,100806.50
2023-04-14T18:10:01.341Z,100813.38
2023-04-14T18:12:27.888Z,100811.56
2023-04-14T18:14:54.347Z,100812.63
2023-04-14T18:17:21.690Z,100816.59
2023-04-14T18:19:48.153Z,100819.31
2023-04-14T18:22:14.619Z,100826.72
2023-04-14T18:29:41.182Z,100822.16
2023-04-14T18:32:07.625Z,100829.97
2023-04-14T18:34:34.984Z,100824.47
2023-04-14T18:37:03.960Z,100825.56
2023-04-14T18:39:36.855Z,100831.94
2023-04-14T18:42:04.017Z,100831.41
2023-04-14T18:44:30.484Z,100829.38
2023-04-14T18:46:56.913Z,100830.56
2023-04-14T18:49:23.670Z,100846.06
2023-04-14T18:51:50.208Z,100840.75
2023-04-14T18:54:16.665Z,100844.53
2023-04-14T18:56:43.261Z,100852.75
2023-04-14T18:59:09.643Z,100846.56
2023-04-14T19:01:36.214Z,100858.78
2023-04-14T19:04:03.680Z,100860.56
2023-04-14T19:06:30.159Z,100867.81
2023-04-14T19:08:56.618Z,100865.06
2023-04-14T19:11:23.827Z,100869.44
2023-04-14T19:13:50.303Z,100878.34
2023-04-14T19:16:17.078Z,100867.84
2023-04-14T19:18:43.611Z,100878.31
2023-04-14T19:21:10.034Z,100879.47
2023-04-14T19:23:37.237Z,100884.88
2023-04-14T19:26:05.301Z,100877.03
2023-04-14T19:28:31.950Z,100881.56
2023-04-14T19:30:58.748Z,100889.66
2023-04-14T19:33:26.823Z,100886.44
2023-04-14T19:35:53.408Z,100885.13
2023-04-14T19:38:20.194Z,100887.28
2023-04-14T19:40:48.419Z,100891.56
2023-04-14T19:43:18.590Z,100885.56
2023-04-14T19:45:57.285Z,100893.22
2023-04-14T19:48:24.657Z,100888.59
2023-04-14T19:50:54.929Z,100885.19
2023-04-14T19:53:21.873Z,100890.25
2023-04-14T19:55:51.510Z,100887.53
2023-04-14T19:58:21.583Z,100884.34
2023-04-14T20:00:48.657Z,100873.41
2023-04-14T20:03:15.056Z,100874.47
2023-04-14T20:05:41.754Z,100871.41
2023-04-14T20:08:08.242Z,100883.06
2023-04-14T20:10:34.778Z,100886.63
2023-04-14T20:13:01.262Z,100872.28
2023-04-14T20:15:27.652Z,100879.09
2023-04-14T20:17:54.080Z,100876.31
2023-04-14T20:20:21.406Z,100878.31
2023-04-14T20:22:49.471Z,100868.38
2023-04-14T20:25:17.846Z,100876.47
2023-04-14T20:27:44.222Z,100876.19
2023-04-14T20:30:12.350Z,100875.97
2023-04-14T20:32:38.715Z,100875.56
2023-04-14T20:35:05.634Z,100876.84
2023-04-14T20:37:32.075Z,100868.91
2023-04-14T20:39:58.390Z,100874.78
2023-04-14T20:42:25.220Z,100872.56
2023-04-14T20:44:51.581Z,100873.13
2023-04-14T20:47:17.932Z,100882.03
2023-04-14T20:49:44.908Z,100875.75
2023-04-14T20:52:11.328Z,100878.16
2023-04-14T20:54:37.727Z,100883.97
2023-04-14T20:57:05.502Z,100879.78
2023-04-14T20:59:32.603Z,100874.53
2023-04-14T21:01:59.010Z,100869.81
2023-04-14T21:04:26.098Z,100870.69
2023-04-14T21:06:52.776Z,100862.91
2023-04-14T21:09:21.172Z,100865.09
2023-04-14T21:11:47.734Z,100868.66
2023-04-14T21:15:47.890Z,100869.56
2023-04-14T21:17:20.283Z,100872.09
2023-04-14T21:19:47.031Z,100873.56
2023-04-14T21:22:13.383Z,100875.53
2023-04-14T21:24:39.687Z,100875.38
2023-04-14T21:27:05.995Z,100874.66
2023-04-14T21:29:32.364Z,100870.69
2023-04-14T21:31:58.688Z,100881.69
2023-04-14T21:34:27.301Z,100879.59
2023-04-14T21:36:53.634Z,100879.03
2023-04-14T21:39:20.302Z,100879.03
2023-04-14T21:41:46.651Z,100889.94
2023-04-14T21:44:15.558Z,100887.84
2023-04-14T21:46:42.143Z,100879.50
2023-04-14T21:49:08.462Z,100891.19
2023-04-14T21:51:34.757Z,100880.28
2023-04-14T21:54:01.324Z,100886.97
2023-04-14T21:56:27.912Z,100888.50
2023-04-14T21:58:54.358Z,100885.22
2023-04-14T22:01:20.818Z,100890.31
2023-04-14T22:03:47.351Z,100887.91
2023-04-14T22:06:13.779Z,100888.81
2023-04-14T22:08:43.088Z,100888.06
2023-04-14T22:11:09.433Z,100884.31
2023-04-14T22:13:36.100Z,100886.56
2023-04-14T22:16:03.578Z,100889.94
2023-04-14T22:18:30.906Z,100891.69
2023-04-14T22:20:57.180Z,100883.03
2023-04-14T22:23:23.729Z,100888.41
2023-04-14T22:25:51.013Z,100889.28
2023-04-14T22:28:17.298Z,100880.97
2023-04-14T22:30:44.087Z,100887.91
2023-04-14T22:33:10.530Z,100884.31
2023-04-14T22:35:37.153Z,100890.72
2023-04-14T22:38:03.563Z,100887.00
2023-04-14T22:40:29.953Z,100889.97
2023-04-14T22:42:56.560Z,100893.59
2023-04-14T22:45:23.056Z,100889.06
2023-04-14T22:47:49.605Z,100887.88
2023-04-14T22:50:16.050Z,100886.09
2023-04-14T22:52:42.742Z,100891.03
2023-04-14T22:55:09.248Z,100888.78
2023-04-14T22:57:35.624Z,100884.47
2023-04-14T23:00:08.864Z,100883.25
2023-04-14T23:02:36.149Z,100884.41
2023-04-14T23:05:04.094Z,100883.44
2023-04-14T23:07:30.518Z,100882.22
2023-04-14T23:09:57.470Z,100879.16
2023-04-14T23:12:23.924Z,100884.69
2023-04-14T23:14:50.546Z,100892.13
2023-04-14T23:17:17.188Z,100886.88
2023-04-14T23:19:43.633Z,100885.31
2023-04-14T23:22:10.202Z,100887.53
2023-04-14T23:24:36.609Z,100890.72
2023-04-14T23:27:03.127Z,100891.50
2023-04-14T23:29:29.590Z,100882.31
2023-04-14T23:31:56.622Z,100881.47
2023-04-14T23:34:23.413Z,100882.81
2023-04-14T23:36:49.795Z,100880.28
2023-04-14T23:39:16.169Z,100883.53
2023-04-14T23:41:42.633Z,100874.47
2023-04-14T23:44:09.390Z,100882.34
2023-04-14T23:46:36.027Z,100882.84
2023-04-14T23:49:02.639Z,100888.63
2023-04-14T23:51:29.755Z,100883.25
2023-04-14T23:53:59.370Z,100873.69
2023-04-14T23:56:26.065Z,100860.16
2023-04-14T23:58:53.116Z,100871.22
